This is the latest recevied weather packets stored in our database for station/object AD7ZD. If no packets are shown the sender has not sent any weather packets the latest 10 day(s).
| Time | Temp. | Humidity | Pressure | Rain* | Wind** | Luminosity | Snow |
|---|---|---|---|---|---|---|---|
| 1777835869 | 22.78° C | 25% | 1008.3 hPa | 0 mm | - | 389 W/m² | - |
| 1777835566 | 21.67° C | 27% | 1008.1 hPa | 0 mm | - | 417 W/m² | - |
| 1777835263 | 21.67° C | 25% | 1008.5 hPa | 0 mm | - | 405 W/m² | - |
| 1777834960 | 21.11° C | 28% | 1008.5 hPa | 0 mm | - | 439 W/m² | - |
| 1777834657 | 21.11° C | 29% | 1008.6 hPa | 0 mm | - | 458 W/m² | - |
| 1777834352 | 21.11° C | 30% | 1008.7 hPa | 0 mm | - | 533 W/m² | - |
| 1777834047 | 20.56° C | 29% | 1008.8 hPa | 0 mm | - | 510 W/m² | - |
| 1777833744 | 20.56° C | 29% | 1008.9 hPa | 0 mm | - | 488 W/m² | - |
| 1777833440 | 21.11° C | 28% | 1009 hPa | 0 mm | - | 418 W/m² | - |
| 1777833137 | 21.11° C | 28% | 1009.2 hPa | 0 mm | - | 904 W/m² | - |
| 1777832835 | 21.11° C | 29% | 1009.2 hPa | 0 mm | - | 670 W/m² | - |
| 1777832534 | 20.56° C | 30% | 1009.2 hPa | 0 mm | - | 652 W/m² | - |
| 1777832230 | 20° C | 31% | 1009.6 hPa | 0 mm | - | 506 W/m² | - |
| 1777831927 | 20° C | 30% | 1009.5 hPa | 0 mm | - | 699 W/m² | - |
| 1777831624 | 19.44° C | 33% | 1009.5 hPa | 0 mm | - | 778 W/m² | - |
| 1777831322 | 19.44° C | 33% | 1009.6 hPa | 0 mm | - | 471 W/m² | - |
| 1777831019 | 19.44° C | 33% | 1009.6 hPa | 0 mm | - | 688 W/m² | - |
| 1777830716 | 18.89° C | 34% | 1009.7 hPa | 0 mm | - | 478 W/m² | - |
| 1777830412 | 19.44° C | 33% | 1010 hPa | 0 mm | - | 535 W/m² | - |
| 1777830110 | 19.44° C | 33% | 1010 hPa | 0 mm | - | 848 W/m² | - |
| 1777829805 | 18.89° C | 35% | 1010 hPa | 0 mm | - | 782 W/m² | - |
| 1777829501 | 18.89° C | 33% | 1009.7 hPa | 0 mm | - | 676 W/m² | - |
| 1777829198 | 18.33° C | 34% | 1009.8 hPa | 0 mm | - | 678 W/m² | - |
| 1777828896 | 18.33° C | 36% | 1010.1 hPa | 0 mm | - | 601 W/m² | - |
| 1777828591 | 17.78° C | 38% | 1010.1 hPa | 0 mm | - | 356 W/m² | - |
* Rain latest hour (hover to see other rain measurements)
** Current wind speed in m/s (hover to see current wind gust speed)